sensor_id;sensor_type;location;lat;lon;timestamp;P1;durP1;ratioP1;P2;durP2;ratioP2
33902;SDS011;20194;50.950;5.346;2024-03-08T00:01:10;37.08;;;17.42;;
33902;SDS011;20194;50.950;5.346;2024-03-08T00:03:35;37.22;;;17.70;;
33902;SDS011;20194;50.950;5.346;2024-03-08T00:06:01;28.60;;;16.63;;
33902;SDS011;20194;50.950;5.346;2024-03-08T00:08:27;32.85;;;17.00;;
33902;SDS011;20194;50.950;5.346;2024-03-08T00:10:53;32.83;;;16.98;;
33902;SDS011;20194;50.950;5.346;2024-03-08T00:13:19;31.75;;;16.85;;
33902;SDS011;20194;50.950;5.346;2024-03-08T00:15:44;30.65;;;17.55;;
33902;SDS011;20194;50.950;5.346;2024-03-08T00:18:10;36.55;;;18.63;;
33902;SDS011;20194;50.950;5.346;2024-03-08T00:20:36;34.33;;;17.77;;
33902;SDS011;20194;50.950;5.346;2024-03-08T00:23:03;37.25;;;18.98;;
33902;SDS011;20194;50.950;5.346;2024-03-08T00:25:28;31.90;;;17.58;;
33902;SDS011;20194;50.950;5.346;2024-03-08T00:27:54;37.70;;;17.88;;
33902;SDS011;20194;50.950;5.346;2024-03-08T00:30:24;37.28;;;17.90;;
33902;SDS011;20194;50.950;5.346;2024-03-08T00:32:50;35.03;;;18.67;;
33902;SDS011;20194;50.950;5.346;2024-03-08T00:35:16;35.05;;;18.80;;
33902;SDS011;20194;50.950;5.346;2024-03-08T00:37:43;33.53;;;18.17;;
33902;SDS011;20194;50.950;5.346;2024-03-08T00:40:11;30.77;;;17.58;;
33902;SDS011;20194;50.950;5.346;2024-03-08T00:42:37;33.70;;;19.08;;
33902;SDS011;20194;50.950;5.346;2024-03-08T00:45:05;40.83;;;19.23;;
33902;SDS011;20194;50.950;5.346;2024-03-08T00:47:30;31.70;;;17.52;;
33902;SDS011;20194;50.950;5.346;2024-03-08T00:49:56;35.75;;;19.33;;
33902;SDS011;20194;50.950;5.346;2024-03-08T00:52:22;37.75;;;19.05;;
33902;SDS011;20194;50.950;5.346;2024-03-08T00:54:49;37.40;;;19.80;;
33902;SDS011;20194;50.950;5.346;2024-03-08T00:57:15;40.17;;;19.40;;
33902;SDS011;20194;50.950;5.346;2024-03-08T00:59:41;35.50;;;19.13;;
33902;SDS011;20194;50.950;5.346;2024-03-08T01:02:07;38.20;;;21.63;;
33902;SDS011;20194;50.950;5.346;2024-03-08T01:04:35;37.78;;;19.83;;
33902;SDS011;20194;50.950;5.346;2024-03-08T01:07:01;37.53;;;19.55;;
33902;SDS011;20194;50.950;5.346;2024-03-08T01:09:27;38.05;;;18.55;;
33902;SDS011;20194;50.950;5.346;2024-03-08T01:11:54;33.10;;;19.55;;
33902;SDS011;20194;50.950;5.346;2024-03-08T01:14:21;35.78;;;19.40;;
33902;SDS011;20194;50.950;5.346;2024-03-08T01:16:48;37.42;;;19.55;;
33902;SDS011;20194;50.950;5.346;2024-03-08T01:19:14;35.58;;;20.17;;
33902;SDS011;20194;50.950;5.346;2024-03-08T01:21:40;37.33;;;19.35;;
33902;SDS011;20194;50.950;5.346;2024-03-08T01:24:06;43.70;;;20.38;;
33902;SDS011;20194;50.950;5.346;2024-03-08T01:26:32;31.33;;;18.40;;
33902;SDS011;20194;50.950;5.346;2024-03-08T01:28:59;37.70;;;20.38;;
33902;SDS011;20194;50.950;5.346;2024-03-08T01:31:28;40.38;;;19.15;;
33902;SDS011;20194;50.950;5.346;2024-03-08T01:33:57;32.47;;;19.02;;
33902;SDS011;20194;50.950;5.346;2024-03-08T01:36:23;37.92;;;20.55;;
33902;SDS011;20194;50.950;5.346;2024-03-08T01:38:49;37.53;;;20.90;;
33902;SDS011;20194;50.950;5.346;2024-03-08T01:41:16;37.25;;;18.48;;
33902;SDS011;20194;50.950;5.346;2024-03-08T01:43:43;37.40;;;20.17;;
33902;SDS011;20194;50.950;5.346;2024-03-08T01:46:09;37.88;;;20.48;;
33902;SDS011;20194;50.950;5.346;2024-03-08T01:48:37;36.05;;;20.67;;
33902;SDS011;20194;50.950;5.346;2024-03-08T01:51:06;39.85;;;20.17;;
33902;SDS011;20194;50.950;5.346;2024-03-08T01:53:32;35.60;;;20.65;;
33902;SDS011;20194;50.950;5.346;2024-03-08T01:55:59;38.00;;;19.52;;
33902;SDS011;20194;50.950;5.346;2024-03-08T01:58:27;39.22;;;20.98;;
33902;SDS011;20194;50.950;5.346;2024-03-08T02:00:54;36.85;;;20.85;;
33902;SDS011;20194;50.950;5.346;2024-03-08T02:03:23;35.83;;;19.92;;
33902;SDS011;20194;50.950;5.346;2024-03-08T02:05:48;41.88;;;22.67;;
33902;SDS011;20194;50.950;5.346;2024-03-08T02:08:16;35.75;;;19.63;;
33902;SDS011;20194;50.950;5.346;2024-03-08T02:10:45;40.33;;;20.20;;
33902;SDS011;20194;50.950;5.346;2024-03-08T02:13:11;36.75;;;20.67;;
33902;SDS011;20194;50.950;5.346;2024-03-08T02:15:53;38.40;;;20.55;;
33902;SDS011;20194;50.950;5.346;2024-03-08T02:18:26;35.45;;;20.60;;
33902;SDS011;20194;50.950;5.346;2024-03-08T02:23:20;40.13;;;22.73;;
33902;SDS011;20194;50.950;5.346;2024-03-08T02:25:46;38.17;;;20.63;;
33902;SDS011;20194;50.950;5.346;2024-03-08T02:28:13;39.10;;;21.10;;
33902;SDS011;20194;50.950;5.346;2024-03-08T02:30:39;38.65;;;19.52;;
33902;SDS011;20194;50.950;5.346;2024-03-08T02:33:05;43.78;;;21.17;;
33902;SDS011;20194;50.950;5.346;2024-03-08T02:35:32;36.72;;;20.58;;
33902;SDS011;20194;50.950;5.346;2024-03-08T02:37:58;40.85;;;21.08;;
33902;SDS011;20194;50.950;5.346;2024-03-08T02:40:24;36.95;;;20.65;;
33902;SDS011;20194;50.950;5.346;2024-03-08T02:42:50;38.08;;;21.17;;
33902;SDS011;20194;50.950;5.346;2024-03-08T02:45:16;39.00;;;21.05;;
33902;SDS011;20194;50.950;5.346;2024-03-08T02:47:42;41.25;;;22.45;;
33902;SDS011;20194;50.950;5.346;2024-03-08T02:50:08;38.42;;;20.58;;
33902;SDS011;20194;50.950;5.346;2024-03-08T02:52:34;36.83;;;20.83;;
33902;SDS011;20194;50.950;5.346;2024-03-08T02:55:03;39.53;;;21.27;;
33902;SDS011;20194;50.950;5.346;2024-03-08T02:57:31;39.53;;;21.27;;
33902;SDS011;20194;50.950;5.346;2024-03-08T02:59:57;38.17;;;20.13;;
33902;SDS011;20194;50.950;5.346;2024-03-08T03:02:25;40.53;;;21.73;;
33902;SDS011;20194;50.950;5.346;2024-03-08T03:04:51;44.35;;;21.48;;
33902;SDS011;20194;50.950;5.346;2024-03-08T03:07:17;39.38;;;20.33;;
33902;SDS011;20194;50.950;5.346;2024-03-08T03:09:44;40.60;;;22.00;;
33902;SDS011;20194;50.950;5.346;2024-03-08T03:12:10;41.83;;;21.42;;
33902;SDS011;20194;50.950;5.346;2024-03-08T03:14:36;32.92;;;14.38;;
33902;SDS011;20194;50.950;5.346;2024-03-08T03:17:05;45.08;;;20.70;;
33902;SDS011;20194;50.950;5.346;2024-03-08T03:19:31;38.50;;;21.23;;
33902;SDS011;20194;50.950;5.346;2024-03-08T03:21:56;36.53;;;20.40;;
33902;SDS011;20194;50.950;5.346;2024-03-08T03:24:22;44.38;;;22.27;;
33902;SDS011;20194;50.950;5.346;2024-03-08T03:26:48;36.83;;;21.20;;
33902;SDS011;20194;50.950;5.346;2024-03-08T03:29:14;41.15;;;21.52;;
33902;SDS011;20194;50.950;5.346;2024-03-08T03:31:42;38.58;;;20.55;;
33902;SDS011;20194;50.950;5.346;2024-03-08T03:34:11;39.95;;;21.90;;
33902;SDS011;20194;50.950;5.346;2024-03-08T03:36:37;40.97;;;20.88;;
33902;SDS011;20194;50.950;5.346;2024-03-08T03:39:07;41.30;;;21.15;;
33902;SDS011;20194;50.950;5.346;2024-03-08T03:41:38;43.35;;;21.23;;
33902;SDS011;20194;50.950;5.346;2024-03-08T03:44:04;39.92;;;21.60;;
33902;SDS011;20194;50.950;5.346;2024-03-08T03:46:33;42.88;;;22.20;;
33902;SDS011;20194;50.950;5.346;2024-03-08T03:48:59;44.47;;;21.20;;
33902;SDS011;20194;50.950;5.346;2024-03-08T03:51:25;42.30;;;21.63;;
33902;SDS011;20194;50.950;5.346;2024-03-08T03:53:51;40.63;;;20.55;;
33902;SDS011;20194;50.950;5.346;2024-03-08T03:56:18;41.88;;;20.75;;
33902;SDS011;20194;50.950;5.346;2024-03-08T03:58:44;35.65;;;20.30;;
33902;SDS011;20194;50.950;5.346;2024-03-08T04:01:09;40.83;;;21.70;;
33902;SDS011;20194;50.950;5.346;2024-03-08T04:03:35;40.28;;;21.20;;
33902;SDS011;20194;50.950;5.346;2024-03-08T04:06:02;43.92;;;21.55;;
33902;SDS011;20194;50.950;5.346;2024-03-08T04:08:31;40.00;;;21.27;;
33902;SDS011;20194;50.950;5.346;2024-03-08T04:10:59;42.97;;;21.60;;
33902;SDS011;20194;50.950;5.346;2024-03-08T04:13:25;36.30;;;20.83;;
33902;SDS011;20194;50.950;5.346;2024-03-08T04:15:51;42.30;;;21.20;;
33902;SDS011;20194;50.950;5.346;2024-03-08T04:18:17;40.50;;;20.83;;
33902;SDS011;20194;50.950;5.346;2024-03-08T04:20:44;37.85;;;18.48;;
33902;SDS011;20194;50.950;5.346;2024-03-08T04:23:10;43.05;;;21.00;;
33902;SDS011;20194;50.950;5.346;2024-03-08T04:25:36;41.47;;;20.90;;
33902;SDS011;20194;50.950;5.346;2024-03-08T04:28:02;33.75;;;18.35;;
33902;SDS011;20194;50.950;5.346;2024-03-08T04:30:28;53.10;;;22.30;;
33902;SDS011;20194;50.950;5.346;2024-03-08T04:32:55;43.03;;;21.10;;
33902;SDS011;20194;50.950;5.346;2024-03-08T04:35:22;39.42;;;21.75;;
33902;SDS011;20194;50.950;5.346;2024-03-08T04:37:47;46.03;;;20.17;;
33902;SDS011;20194;50.950;5.346;2024-03-08T04:40:13;40.13;;;20.33;;
33902;SDS011;20194;50.950;5.346;2024-03-08T04:42:39;47.55;;;20.65;;
33902;SDS011;20194;50.950;5.346;2024-03-08T04:45:08;40.00;;;20.30;;
33902;SDS011;20194;50.950;5.346;2024-03-08T04:47:35;39.63;;;21.30;;
33902;SDS011;20194;50.950;5.346;2024-03-08T04:50:01;42.40;;;20.17;;
33902;SDS011;20194;50.950;5.346;2024-03-08T04:52:27;40.58;;;21.02;;
33902;SDS011;20194;50.950;5.346;2024-03-08T04:54:53;38.10;;;19.98;;
33902;SDS011;20194;50.950;5.346;2024-03-08T04:57:19;40.75;;;19.70;;
33902;SDS011;20194;50.950;5.346;2024-03-08T04:59:45;39.70;;;20.70;;
33902;SDS011;20194;50.950;5.346;2024-03-08T05:02:11;41.38;;;20.83;;
33902;SDS011;20194;50.950;5.346;2024-03-08T05:04:37;40.72;;;21.52;;
33902;SDS011;20194;50.950;5.346;2024-03-08T05:07:02;40.15;;;19.67;;
33902;SDS011;20194;50.950;5.346;2024-03-08T05:09:29;39.13;;;20.83;;
33902;SDS011;20194;50.950;5.346;2024-03-08T05:11:56;41.60;;;19.80;;
33902;SDS011;20194;50.950;5.346;2024-03-08T05:14:24;42.08;;;20.33;;
33902;SDS011;20194;50.950;5.346;2024-03-08T05:16:50;40.95;;;20.20;;
33902;SDS011;20194;50.950;5.346;2024-03-08T05:19:16;40.10;;;19.08;;
33902;SDS011;20194;50.950;5.346;2024-03-08T05:21:43;45.28;;;19.55;;
33902;SDS011;20194;50.950;5.346;2024-03-08T05:24:13;39.97;;;20.90;;
33902;SDS011;20194;50.950;5.346;2024-03-08T05:26:39;44.15;;;21.00;;
33902;SDS011;20194;50.950;5.346;2024-03-08T05:29:05;40.50;;;21.13;;
33902;SDS011;20194;50.950;5.346;2024-03-08T05:31:35;40.67;;;20.95;;
33902;SDS011;20194;50.950;5.346;2024-03-08T05:34:29;43.55;;;20.65;;
33902;SDS011;20194;50.950;5.346;2024-03-08T05:36:55;40.08;;;19.45;;
33902;SDS011;20194;50.950;5.346;2024-03-08T05:39:23;46.20;;;20.48;;
33902;SDS011;20194;50.950;5.346;2024-03-08T05:41:49;43.83;;;20.55;;
33902;SDS011;20194;50.950;5.346;2024-03-08T05:44:15;39.83;;;19.70;;
33902;SDS011;20194;50.950;5.346;2024-03-08T05:46:44;42.40;;;19.00;;
33902;SDS011;20194;50.950;5.346;2024-03-08T05:49:11;43.58;;;20.45;;
33902;SDS011;20194;50.950;5.346;2024-03-08T05:51:38;41.45;;;19.92;;
33902;SDS011;20194;50.950;5.346;2024-03-08T05:54:06;43.92;;;20.00;;
33902;SDS011;20194;50.950;5.346;2024-03-08T05:56:36;39.05;;;19.92;;
33902;SDS011;20194;50.950;5.346;2024-03-08T05:59:03;39.25;;;17.08;;
33902;SDS011;20194;50.950;5.346;2024-03-08T06:01:29;41.08;;;18.98;;
33902;SDS011;20194;50.950;5.346;2024-03-08T06:04:01;43.67;;;21.15;;
33902;SDS011;20194;50.950;5.346;2024-03-08T06:06:27;41.63;;;20.23;;
33902;SDS011;20194;50.950;5.346;2024-03-08T06:08:53;36.17;;;17.13;;
33902;SDS011;20194;50.950;5.346;2024-03-08T06:11:21;43.67;;;20.85;;
33902;SDS011;20194;50.950;5.346;2024-03-08T06:13:47;40.58;;;19.23;;
33902;SDS011;20194;50.950;5.346;2024-03-08T06:16:14;47.83;;;20.00;;
33902;SDS011;20194;50.950;5.346;2024-03-08T06:18:40;42.67;;;19.77;;
33902;SDS011;20194;50.950;5.346;2024-03-08T06:21:07;43.28;;;20.23;;
33902;SDS011;20194;50.950;5.346;2024-03-08T06:23:41;44.13;;;20.85;;
33902;SDS011;20194;50.950;5.346;2024-03-08T06:26:07;41.30;;;19.63;;
33902;SDS011;20194;50.950;5.346;2024-03-08T06:28:33;52.22;;;19.95;;
33902;SDS011;20194;50.950;5.346;2024-03-08T06:31:02;44.78;;;21.48;;
33902;SDS011;20194;50.950;5.346;2024-03-08T06:33:29;45.30;;;20.95;;
33902;SDS011;20194;50.950;5.346;2024-03-08T06:35:57;62.35;;;22.05;;
33902;SDS011;20194;50.950;5.346;2024-03-08T06:38:23;58.33;;;22.05;;
33902;SDS011;20194;50.950;5.346;2024-03-08T06:40:49;41.92;;;18.77;;
33902;SDS011;20194;50.950;5.346;2024-03-08T06:43:16;48.80;;;22.88;;
33902;SDS011;20194;50.950;5.346;2024-03-08T06:45:43;46.25;;;20.95;;
33902;SDS011;20194;50.950;5.346;2024-03-08T06:48:15;44.40;;;20.33;;
33902;SDS011;20194;50.950;5.346;2024-03-08T06:50:42;43.22;;;20.73;;
33902;SDS011;20194;50.950;5.346;2024-03-08T06:53:09;41.65;;;20.95;;
33902;SDS011;20194;50.950;5.346;2024-03-08T06:55:35;36.15;;;16.98;;
33902;SDS011;20194;50.950;5.346;2024-03-08T06:58:01;44.85;;;19.30;;
33902;SDS011;20194;50.950;5.346;2024-03-08T07:00:27;43.65;;;20.67;;
33902;SDS011;20194;50.950;5.346;2024-03-08T07:02:55;37.40;;;17.15;;
33902;SDS011;20194;50.950;5.346;2024-03-08T07:05:25;44.65;;;20.63;;
33902;SDS011;20194;50.950;5.346;2024-03-08T07:07:55;47.85;;;20.38;;
33902;SDS011;20194;50.950;5.346;2024-03-08T07:10:21;35.47;;;18.08;;
33902;SDS011;20194;50.950;5.346;2024-03-08T07:12:49;43.75;;;20.08;;
33902;SDS011;20194;50.950;5.346;2024-03-08T07:15:16;46.30;;;21.55;;
33902;SDS011;20194;50.950;5.346;2024-03-08T07:17:44;37.65;;;19.58;;
33902;SDS011;20194;50.950;5.346;2024-03-08T07:20:11;45.13;;;20.00;;
33902;SDS011;20194;50.950;5.346;2024-03-08T07:22:38;45.10;;;21.95;;
33902;SDS011;20194;50.950;5.346;2024-03-08T07:25:05;46.40;;;21.50;;
33902;SDS011;20194;50.950;5.346;2024-03-08T07:27:52;40.13;;;17.85;;
33902;SDS011;20194;50.950;5.346;2024-03-08T07:30:19;43.53;;;19.97;;
33902;SDS011;20194;50.950;5.346;2024-03-08T07:33:04;42.88;;;19.40;;
33902;SDS011;20194;50.950;5.346;2024-03-08T07:35:32;41.38;;;20.23;;
33902;SDS011;20194;50.950;5.346;2024-03-08T07:37:58;43.35;;;20.02;;
33902;SDS011;20194;50.950;5.346;2024-03-08T07:40:25;40.97;;;19.60;;
33902;SDS011;20194;50.950;5.346;2024-03-08T07:42:51;34.03;;;16.42;;
33902;SDS011;20194;50.950;5.346;2024-03-08T07:45:17;44.80;;;20.88;;
33902;SDS011;20194;50.950;5.346;2024-03-08T07:47:43;43.08;;;19.13;;
33902;SDS011;20194;50.950;5.346;2024-03-08T07:50:09;39.45;;;16.55;;
33902;SDS011;20194;50.950;5.346;2024-03-08T07:52:35;39.95;;;20.10;;
33902;SDS011;20194;50.950;5.346;2024-03-08T07:55:06;43.45;;;17.08;;
33902;SDS011;20194;50.950;5.346;2024-03-08T07:57:32;39.95;;;18.77;;
33902;SDS011;20194;50.950;5.346;2024-03-08T07:59:58;44.03;;;19.00;;
33902;SDS011;20194;50.950;5.346;2024-03-08T08:02:24;38.45;;;18.65;;
33902;SDS011;20194;50.950;5.346;2024-03-08T08:04:49;36.97;;;18.67;;
33902;SDS011;20194;50.950;5.346;2024-03-08T08:07:15;40.92;;;18.52;;
33902;SDS011;20194;50.950;5.346;2024-03-08T08:09:41;32.35;;;14.65;;
33902;SDS011;20194;50.950;5.346;2024-03-08T08:12:10;37.58;;;17.52;;
33902;SDS011;20194;50.950;5.346;2024-03-08T08:14:39;37.85;;;18.95;;
33902;SDS011;20194;50.950;5.346;2024-03-08T08:17:06;34.50;;;17.23;;
33902;SDS011;20194;50.950;5.346;2024-03-08T08:19:33;37.53;;;16.90;;
33902;SDS011;20194;50.950;5.346;2024-03-08T08:22:00;35.65;;;18.45;;
33902;SDS011;20194;50.950;5.346;2024-03-08T08:24:27;28.88;;;13.35;;
33902;SDS011;20194;50.950;5.346;2024-03-08T08:26:53;41.10;;;18.65;;
33902;SDS011;20194;50.950;5.346;2024-03-08T08:29:20;36.17;;;17.77;;
33902;SDS011;20194;50.950;5.346;2024-03-08T08:31:47;42.58;;;17.85;;
33902;SDS011;20194;50.950;5.346;2024-03-08T08:34:15;40.58;;;17.27;;
33902;SDS011;20194;50.950;5.346;2024-03-08T08:36:44;33.08;;;16.13;;
33902;SDS011;20194;50.950;5.346;2024-03-08T08:39:10;36.60;;;18.70;;
33902;SDS011;20194;50.950;5.346;2024-03-08T08:41:38;33.92;;;17.73;;
33902;SDS011;20194;50.950;5.346;2024-03-08T08:44:07;36.33;;;17.55;;
33902;SDS011;20194;50.950;5.346;2024-03-08T08:46:37;31.15;;;15.18;;
33902;SDS011;20194;50.950;5.346;2024-03-08T08:49:03;35.90;;;16.10;;
33902;SDS011;20194;50.950;5.346;2024-03-08T08:51:30;34.28;;;17.08;;
33902;SDS011;20194;50.950;5.346;2024-03-08T08:53:58;36.25;;;18.98;;
33902;SDS011;20194;50.950;5.346;2024-03-08T08:56:24;35.47;;;17.98;;
33902;SDS011;20194;50.950;5.346;2024-03-08T08:58:51;34.90;;;16.45;;
33902;SDS011;20194;50.950;5.346;2024-03-08T09:01:19;34.53;;;17.48;;
33902;SDS011;20194;50.950;5.346;2024-03-08T09:03:45;28.05;;;11.20;;
33902;SDS011;20194;50.950;5.346;2024-03-08T09:06:15;29.85;;;13.43;;
33902;SDS011;20194;50.950;5.346;2024-03-08T09:08:41;33.17;;;16.90;;
33902;SDS011;20194;50.950;5.346;2024-03-08T09:11:09;37.47;;;17.00;;
33902;SDS011;20194;50.950;5.346;2024-03-08T09:13:35;31.08;;;16.98;;
33902;SDS011;20194;50.950;5.346;2024-03-08T09:16:01;35.38;;;17.13;;
33902;SDS011;20194;50.950;5.346;2024-03-08T09:18:28;36.35;;;17.15;;
33902;SDS011;20194;50.950;5.346;2024-03-08T09:20:54;27.70;;;15.25;;
33902;SDS011;20194;50.950;5.346;2024-03-08T09:23:20;33.58;;;15.38;;
33902;SDS011;20194;50.950;5.346;2024-03-08T09:25:45;35.15;;;16.65;;
33902;SDS011;20194;50.950;5.346;2024-03-08T09:28:11;30.48;;;14.75;;
33902;SDS011;20194;50.950;5.346;2024-03-08T09:30:38;32.33;;;17.38;;
33902;SDS011;20194;50.950;5.346;2024-03-08T09:33:04;30.25;;;15.50;;
33902;SDS011;20194;50.950;5.346;2024-03-08T09:35:31;31.42;;;16.10;;
33902;SDS011;20194;50.950;5.346;2024-03-08T09:37:57;32.00;;;15.98;;
33902;SDS011;20194;50.950;5.346;2024-03-08T09:40:23;32.28;;;16.65;;
33902;SDS011;20194;50.950;5.346;2024-03-08T09:42:51;27.02;;;15.52;;
33902;SDS011;20194;50.950;5.346;2024-03-08T09:45:17;32.90;;;16.73;;
33902;SDS011;20194;50.950;5.346;2024-03-08T09:47:47;38.78;;;15.95;;
33902;SDS011;20194;50.950;5.346;2024-03-08T09:50:14;30.63;;;16.60;;
33902;SDS011;20194;50.950;5.346;2024-03-08T09:52:41;28.08;;;14.88;;
33902;SDS011;20194;50.950;5.346;2024-03-08T09:55:09;37.10;;;16.23;;
33902;SDS011;20194;50.950;5.346;2024-03-08T09:57:36;26.00;;;13.18;;
33902;SDS011;20194;50.950;5.346;2024-03-08T10:00:03;35.67;;;17.40;;
33902;SDS011;20194;50.950;5.346;2024-03-08T10:02:49;29.10;;;15.85;;
33902;SDS011;20194;50.950;5.346;2024-03-08T10:05:17;28.13;;;14.13;;
33902;SDS011;20194;50.950;5.346;2024-03-08T10:07:43;30.67;;;15.18;;
33902;SDS011;20194;50.950;5.346;2024-03-08T10:10:09;32.00;;;15.73;;
33902;SDS011;20194;50.950;5.346;2024-03-08T10:12:37;27.63;;;14.85;;
33902;SDS011;20194;50.950;5.346;2024-03-08T10:15:05;37.35;;;14.18;;
33902;SDS011;20194;50.950;5.346;2024-03-08T10:17:34;30.70;;;16.02;;
33902;SDS011;20194;50.950;5.346;2024-03-08T10:20:00;31.38;;;16.30;;
33902;SDS011;20194;50.950;5.346;2024-03-08T10:22:26;27.15;;;15.90;;
33902;SDS011;20194;50.950;5.346;2024-03-08T10:24:54;32.90;;;16.52;;
33902;SDS011;20194;50.950;5.346;2024-03-08T10:27:20;30.10;;;16.20;;
33902;SDS011;20194;50.950;5.346;2024-03-08T10:29:47;30.23;;;14.98;;
33902;SDS011;20194;50.950;5.346;2024-03-08T10:32:16;24.85;;;14.68;;
33902;SDS011;20194;50.950;5.346;2024-03-08T10:34:43;31.67;;;15.38;;
33902;SDS011;20194;50.950;5.346;2024-03-08T10:39:42;25.60;;;14.57;;
33902;SDS011;20194;50.950;5.346;2024-03-08T10:42:17;32.58;;;17.40;;
33902;SDS011;20194;50.950;5.346;2024-03-08T10:45:02;31.63;;;15.60;;
33902;SDS011;20194;50.950;5.346;2024-03-08T10:47:40;32.03;;;15.27;;
33902;SDS011;20194;50.950;5.346;2024-03-08T10:50:19;28.52;;;13.65;;
33902;SDS011;20194;50.950;5.346;2024-03-08T10:52:51;31.80;;;17.35;;
33902;SDS011;20194;50.950;5.346;2024-03-08T10:55:17;30.90;;;16.20;;
33902;SDS011;20194;50.950;5.346;2024-03-08T10:57:45;27.70;;;13.25;;
33902;SDS011;20194;50.950;5.346;2024-03-08T11:00:12;26.27;;;14.65;;
33902;SDS011;20194;50.950;5.346;2024-03-08T11:02:39;30.77;;;16.20;;
33902;SDS011;20194;50.950;5.346;2024-03-08T11:08:20;33.60;;;14.80;;
33902;SDS011;20194;50.950;5.346;2024-03-08T11:13:35;30.08;;;16.48;;
33902;SDS011;20194;50.950;5.346;2024-03-08T11:16:10;29.85;;;16.00;;
33902;SDS011;20194;50.950;5.346;2024-03-08T11:18:37;25.05;;;14.05;;
33902;SDS011;20194;50.950;5.346;2024-03-08T11:21:09;24.88;;;15.25;;
33902;SDS011;20194;50.950;5.346;2024-03-08T11:23:39;29.65;;;15.77;;
33902;SDS011;20194;50.950;5.346;2024-03-08T11:26:17;26.10;;;15.00;;
33902;SDS011;20194;50.950;5.346;2024-03-08T11:28:45;29.55;;;16.02;;
33902;SDS011;20194;50.950;5.346;2024-03-08T11:33:39;28.85;;;16.10;;
33902;SDS011;20194;50.950;5.346;2024-03-08T11:36:12;29.92;;;15.57;;
33902;SDS011;20194;50.950;5.346;2024-03-08T11:38:45;30.98;;;14.82;;
33902;SDS011;20194;50.950;5.346;2024-03-08T11:41:14;30.88;;;15.32;;
33902;SDS011;20194;50.950;5.346;2024-03-08T11:43:43;28.98;;;15.63;;
33902;SDS011;20194;50.950;5.346;2024-03-08T11:46:09;30.58;;;14.57;;
33902;SDS011;20194;50.950;5.346;2024-03-08T11:48:37;32.67;;;16.75;;
33902;SDS011;20194;50.950;5.346;2024-03-08T11:51:06;27.10;;;14.32;;
33902;SDS011;20194;50.950;5.346;2024-03-08T11:53:34;29.83;;;15.65;;
33902;SDS011;20194;50.950;5.346;2024-03-08T11:56:08;29.17;;;14.63;;
33902;SDS011;20194;50.950;5.346;2024-03-08T11:58:34;30.02;;;15.15;;
33902;SDS011;20194;50.950;5.346;2024-03-08T12:01:06;28.00;;;15.18;;
33902;SDS011;20194;50.950;5.346;2024-03-08T12:03:40;27.95;;;15.43;;
33902;SDS011;20194;50.950;5.346;2024-03-08T12:06:11;29.60;;;14.27;;
33902;SDS011;20194;50.950;5.346;2024-03-08T12:08:40;32.72;;;17.60;;
33902;SDS011;20194;50.950;5.346;2024-03-08T12:11:06;27.45;;;15.32;;
33902;SDS011;20194;50.950;5.346;2024-03-08T12:13:35;27.85;;;14.82;;
33902;SDS011;20194;50.950;5.346;2024-03-08T12:16:03;26.95;;;14.75;;
33902;SDS011;20194;50.950;5.346;2024-03-08T12:18:32;28.70;;;15.10;;
33902;SDS011;20194;50.950;5.346;2024-03-08T12:24:06;25.20;;;11.45;;
33902;SDS011;20194;50.950;5.346;2024-03-08T12:26:34;28.30;;;15.23;;
33902;SDS011;20194;50.950;5.346;2024-03-08T12:31:50;35.67;;;14.00;;
33902;SDS011;20194;50.950;5.346;2024-03-08T12:34:17;27.75;;;13.75;;
33902;SDS011;20194;50.950;5.346;2024-03-08T12:36:44;20.52;;;11.65;;
33902;SDS011;20194;50.950;5.346;2024-03-08T12:39:17;23.77;;;14.35;;
33902;SDS011;20194;50.950;5.346;2024-03-08T12:41:47;32.47;;;14.60;;
33902;SDS011;20194;50.950;5.346;2024-03-08T12:44:22;25.92;;;14.75;;
33902;SDS011;20194;50.950;5.346;2024-03-08T12:46:48;26.27;;;14.65;;
33902;SDS011;20194;50.950;5.346;2024-03-08T12:49:14;29.83;;;15.63;;
33902;SDS011;20194;50.950;5.346;2024-03-08T12:51:45;31.98;;;15.32;;
33902;SDS011;20194;50.950;5.346;2024-03-08T12:54:11;29.70;;;14.32;;
33902;SDS011;20194;50.950;5.346;2024-03-08T12:56:37;27.42;;;15.43;;
33902;SDS011;20194;50.950;5.346;2024-03-08T12:59:05;24.95;;;14.40;;
33902;SDS011;20194;50.950;5.346;2024-03-08T13:01:33;25.73;;;14.40;;
33902;SDS011;20194;50.950;5.346;2024-03-08T13:03:59;29.10;;;15.00;;
33902;SDS011;20194;50.950;5.346;2024-03-08T13:06:28;29.25;;;14.10;;
33902;SDS011;20194;50.950;5.346;2024-03-08T13:08:56;24.40;;;13.88;;
33902;SDS011;20194;50.950;5.346;2024-03-08T13:11:23;29.50;;;14.52;;
33902;SDS011;20194;50.950;5.346;2024-03-08T13:13:53;26.70;;;14.38;;
33902;SDS011;20194;50.950;5.346;2024-03-08T13:16:18;26.13;;;13.82;;
33902;SDS011;20194;50.950;5.346;2024-03-08T13:18:45;28.88;;;13.95;;
33902;SDS011;20194;50.950;5.346;2024-03-08T13:21:14;28.73;;;15.32;;
33902;SDS011;20194;50.950;5.346;2024-03-08T13:23:43;24.55;;;14.00;;
33902;SDS011;20194;50.950;5.346;2024-03-08T13:26:14;26.67;;;14.48;;
33902;SDS011;20194;50.950;5.346;2024-03-08T13:28:43;22.85;;;13.95;;
33902;SDS011;20194;50.950;5.346;2024-03-08T13:31:13;25.77;;;13.20;;
33902;SDS011;20194;50.950;5.346;2024-03-08T13:33:40;31.00;;;12.90;;
33902;SDS011;20194;50.950;5.346;2024-03-08T13:36:07;25.58;;;14.27;;
33902;SDS011;20194;50.950;5.346;2024-03-08T13:38:43;22.58;;;11.05;;
33902;SDS011;20194;50.950;5.346;2024-03-08T13:41:13;23.42;;;13.82;;
33902;SDS011;20194;50.950;5.346;2024-03-08T13:43:41;24.77;;;13.15;;
33902;SDS011;20194;50.950;5.346;2024-03-08T13:46:08;24.67;;;14.05;;
33902;SDS011;20194;50.950;5.346;2024-03-08T13:48:35;25.63;;;13.68;;
33902;SDS011;20194;50.950;5.346;2024-03-08T13:51:02;26.05;;;14.18;;
33902;SDS011;20194;50.950;5.346;2024-03-08T13:53:33;29.35;;;14.05;;
33902;SDS011;20194;50.950;5.346;2024-03-08T13:56:02;28.45;;;14.63;;
33902;SDS011;20194;50.950;5.346;2024-03-08T13:58:28;27.50;;;13.32;;
33902;SDS011;20194;50.950;5.346;2024-03-08T14:00:55;23.90;;;13.70;;
33902;SDS011;20194;50.950;5.346;2024-03-08T14:03:21;24.95;;;14.40;;
33902;SDS011;20194;50.950;5.346;2024-03-08T14:05:48;25.27;;;14.07;;
33902;SDS011;20194;50.950;5.346;2024-03-08T14:08:14;27.20;;;13.88;;
33902;SDS011;20194;50.950;5.346;2024-03-08T14:10:42;23.55;;;13.02;;
33902;SDS011;20194;50.950;5.346;2024-03-08T14:13:08;24.95;;;14.18;;
33902;SDS011;20194;50.950;5.346;2024-03-08T14:15:34;25.50;;;13.18;;
33902;SDS011;20194;50.950;5.346;2024-03-08T14:18:00;25.02;;;13.30;;
33902;SDS011;20194;50.950;5.346;2024-03-08T14:20:26;24.02;;;13.40;;
33902;SDS011;20194;50.950;5.346;2024-03-08T14:22:53;22.73;;;12.63;;
33902;SDS011;20194;50.950;5.346;2024-03-08T14:25:23;26.15;;;13.63;;
33902;SDS011;20194;50.950;5.346;2024-03-08T14:27:52;23.90;;;13.25;;
33902;SDS011;20194;50.950;5.346;2024-03-08T14:30:19;29.77;;;13.50;;
33902;SDS011;20194;50.950;5.346;2024-03-08T14:32:59;29.95;;;13.65;;
33902;SDS011;20194;50.950;5.346;2024-03-08T14:35:26;33.78;;;13.65;;
33902;SDS011;20194;50.950;5.346;2024-03-08T14:37:52;22.85;;;13.35;;
33902;SDS011;20194;50.950;5.346;2024-03-08T14:40:18;22.67;;;12.40;;
33902;SDS011;20194;50.950;5.346;2024-03-08T14:42:47;23.63;;;12.63;;